Latest Coastal Weather Observations for Flinders Reef

IDQ60701

Issued at 4:31 am EST Monday 29 May 2017 (issued every 10 minutes, with the page automatically refreshed every 10 minutes)

About coastal observations | Map of coastal stations | Coastal observations for QLD | Marine services | Other Formats
Station Details ID: 200783 Name: FLINDERS REEF Lat: -17.72 Lon: 148.45 Height: 2.6 m
Data from the previous 72 hours. | See also: Recent months at Flinders Reef
Date/Time
EST
Temp
°C
Wind Pressure Rain since
9am
mm
Weather Cloud Vis
km
Sea
Height
m
Swell
Dir  Spd
kts
Gust
kts
hPa Trend Height
m
Period
s
Dir
29/04:30am 25.3 SE 17 20 1015.4 - - - - - - - - -
29/04:24am 25.1 SE 17 19 1015.2 - - - - - - - - -
29/04:00am 24.8 SE 16 21 1015.5 - - - - - - - - -
29/03:30am 24.5 SE 17 19 1015.4 - - - - - - - - -
29/03:24am 24.5 SSE 17 - 1015.3 - - - - - - - - -
29/03:00am 24.8 ESE 16 19 1015.4 - - - - - - - - -
29/02:30am 25.2 SE 13 16 1015.5 - - - - - - - - -
29/02:24am 25.1 SE 14 - 1015.5 - - - - - - - - -
29/02:00am 25.1 SE 15 18 1015.9 - - - - - - - - -
29/01:30am 25.4 SSE 15 17 1016.2 - - - - - - - - -
29/01:24am 25.5 SSE 15 - 1016.1 - - - - - - - - -
29/01:00am 25.7 SSE 15 18 1016.5 - - - - - - - - -
29/12:30am 25.2 SSE 15 18 1016.6 - - - - - - - - -
29/12:24am 25.2 SSE 16 - 1016.5 - - - - - - - - -
29/12:00am 25.4 SSE 16 19 1016.7 - - - - - - - - -
 
Date/Time
EST
Temp
°C
Wind Pressure Rain since
9am
mm
Weather Cloud Vis
km
Sea
Height
m
Swell
Dir  Spd
kts
Gust
kts
hPa Trend Height
m
Period
s
Dir
28/11:30pm 25.2 SSE 16 18 1016.8 - - - - - - - - -
28/11:24pm 25.2 SSE 15 - 1016.7 - - - - - - - - -
28/11:00pm 25.4 SSE 15 17 1016.8 - - - - - - - - -
28/10:30pm 25.5 SSE 16 17 1016.9 - - - - - - - - -
28/10:24pm 25.4 SSE 15 - 1016.9 - - - - - - - - -
28/10:00pm 25.1 SSE 16 18 1016.9 - - - - - - - - -
28/09:30pm 25.5 SSE 15 18 1017.0 - - - - - - - - -
28/09:24pm 25.5 SSE 14 - 1016.9 - - - - - - - - -
28/09:00pm 25.3 SSE 15 17 1017.0 - - - - - - - - -
28/08:30pm 25.4 SSE 16 19 1016.9 - - - - - - - - -
28/08:24pm 25.5 SSE 16 - 1016.7 - - - - - - - - -
28/08:00pm 25.6 SSE 16 18 1016.7 - - - - - - - - -
28/07:30pm 25.7 SSE 16 18 1016.3 - - - - - - - - -
28/07:24pm 25.5 SE 16 - 1016.1 - - - - - - - - -
28/07:00pm 25.5 SE 15 17 1016.1 - - - - - - - - -
28/06:30pm 25.5 SE 15 18 1015.5 - - - - - - - - -
28/06:24pm 25.5 SE 15 - 1015.4 - - - - - - - - -
28/06:00pm 25.5 SE 16 19 1015.3 - - - - - - - - -
28/05:30pm 25.3 SE 17 21 1014.8 - - - - - - - - -
28/05:24pm 25.5 SSE 15 - 1014.7 - - - - - - - - -
28/05:00pm 25.5 SSE 15 18 1014.7 - - - - - - - - -
28/04:30pm 25.4 SSE 15 18 1014.4 - - - - - - - - -
28/04:24pm 25.4 SSE 15 - 1014.3 - - - - - - - - -
28/04:00pm 25.5 SE 14 18 1014.2 - - - - - - - - -
28/03:30pm 25.6 SE 13 15 1014.2 - - - - - - - - -
28/03:24pm 25.5 SE 12 - 1014.1 - - - - - - - - -
28/03:00pm 25.0 SSE 14 16 1014.2 - - - - - - - - -
28/02:30pm 25.4 SSE 11 13 1014.7 - - - - - - - - -
28/02:24pm 25.5 SSE 11 - 1014.6 - - - - - - - - -
28/02:00pm 25.5 SSE 10 13 1014.8 - - - - - - - - -
28/01:30pm 25.5 S 12 14 1015.0 - - - - - - - - -
28/01:24pm 25.4 SSE 12 - 1014.8 - - - - - - - - -
28/01:00pm 25.6 SSE 12 14 1015.2 - - - - - - - - -
28/12:30pm 25.4 SSE 12 14 1015.5 - - - - - - - - -
28/12:24pm 25.3 SSE 12 - 1015.4 - - - - - - - - -
28/12:00pm 25.5 SSE 13 15 1015.7 - - - - - - - - -
28/11:30am 25.5 SE 12 15 1015.8 - - - - - - - - -
28/11:24am 25.5 SE 12 - 1015.8 - - - - - - - - -
28/11:00am 25.5 SE 13 15 1016.1 - - - - - - - - -
28/10:30am 25.5 SE 13 15 1016.3 - - - - - - - - -
28/10:24am 25.5 SE 13 - 1016.2 - - - - - - - - -
28/10:00am 25.5 SE 13 15 1016.4 - - - - - - - - -
28/09:30am 25.6 SE 13 15 1016.5 - - - - - - - - -
28/09:24am 25.5 ESE 13 - 1016.4 - - - - - - - - -
28/09:00am 25.6 ESE 13 15 1016.3 - - - - - - - - -
28/08:30am 25.5 SE 14 17 1016.0 - - - - - - - - -
28/08:24am 25.4 SE 13 - 1015.9 - - - - - - - - -
28/08:00am 25.3 ESE 13 15 1015.8 - - - - - - - - -
28/07:30am 25.3 SE 12 15 1015.8 - - - - - - - - -
28/07:24am 25.3 SE 13 - 1015.7 - - - - - - - - -
28/07:00am 25.1 SE 13 16 1015.5 - - - - - - - - -
28/06:30am 24.9 ESE 13 16 1015.3 - - - - - - - - -
28/06:24am 25.0 ESE 14 - 1015.2 - - - - - - - - -
28/06:00am 25.0 ESE 14 15 1015.3 - - - - - - - - -
28/05:30am 24.9 ESE 13 16 1015.2 - - - - - - - - -
28/05:24am 25.0 ESE 14 - 1015.1 - - - - - - - - -
28/05:00am 25.1 ESE 14 16 1015.1 - - - - - - - - -
28/04:30am 25.1 ESE 14 17 1015.0 - - - - - - - - -
28/04:24am 25.1 ESE 14 - 1015.0 - - - - - - - - -
28/04:00am 25.1 ESE 14 18 1015.1 - - - - - - - - -
28/03:30am 25.1 SE 14 17 1015.1 - - - - - - - - -
28/03:24am 25.1 SE 14 - 1015.0 - - - - - - - - -
28/03:00am 25.1 ESE 15 17 1015.4 - - - - - - - - -
28/02:30am 25.2 SE 15 18 1015.8 - - - - - - - - -
28/02:24am 25.2 SE 15 - 1015.8 - - - - - - - - -
28/02:00am 25.3 ESE 14 17 1016.1 - - - - - - - - -
28/01:30am 25.3 ESE 14 16 1016.4 - - - - - - - - -
28/01:24am 25.2 ESE 15 - 1016.4 - - - - - - - - -
28/01:00am 25.2 ESE 14 16 1016.7 - - - - - - - - -
28/12:30am 25.3 ESE 15 18 1016.8 - - - - - - - - -
28/12:24am 25.3 ESE 16 - 1016.8 - - - - - - - - -
28/12:00am 25.4 ESE 15 17 1017.0 - - - - - - - - -
 
Date/Time
EST
Temp
°C
Wind Pressure Rain since
9am
mm
Weather Cloud Vis
km
Sea
Height
m
Swell
Dir  Spd
kts
Gust
kts
hPa Trend Height
m
Period
s
Dir
27/11:30pm 25.4 ESE 15 18 1017.1 - - - - - - - - -
27/11:24pm 25.5 SE 15 - 1017.0 - - - - - - - - -
27/11:00pm 25.3 ESE 16 18 1017.1 - - - - - - - - -
27/10:30pm 25.4 ESE 16 19 1017.2 - - - - - - - - -
27/10:24pm 25.6 ESE 16 - 1017.0 - - - - - - - - -
27/10:00pm 25.6 ESE 17 20 1017.2 - - - - - - - - -
27/09:30pm 25.5 SE 17 19 1017.1 - - - - - - - - -
27/09:24pm 25.5 SE 17 - 1017.0 - - - - - - - - -
27/09:00pm 25.5 ESE 17 19 1017.1 - - - - - - - - -
27/08:30pm 25.5 SE 17 21 1016.9 - - - - - - - - -
27/08:24pm 25.5 SE 17 - 1016.7 - - - - - - - - -
27/08:00pm 25.4 SE 16 19 1016.7 - - - - - - - - -
27/07:30pm 25.5 SE 16 18 1016.3 - - - - - - - - -
27/07:24pm 25.5 SE 16 - 1016.1 - - - - - - - - -
27/07:00pm 25.6 SSE 16 18 1016.0 - - - - - - - - -
27/06:30pm 25.5 SE 15 17 1015.6 - - - - - - - - -
27/06:24pm 25.4 SE 15 - 1015.5 - - - - - - - - -
27/06:00pm 25.4 SE 15 17 1015.4 - - - - - - - - -
27/05:30pm 25.6 SE 15 18 1015.1 - - - - - - - - -
27/05:24pm 25.4 SE 16 - 1014.9 - - - - - - - - -
27/05:00pm 25.6 SE 15 18 1014.9 - - - - - - - - -
27/04:30pm 25.6 SE 15 18 1014.6 - - - - - - - - -
27/04:24pm 25.7 SE 15 - 1014.5 - - - - - - - - -
27/04:00pm 25.7 SE 15 19 1014.4 - - - - - - - - -
27/03:30pm 25.8 SE 14 17 1014.4 - - - - - - - - -
27/03:24pm 25.9 SE 15 - 1014.3 - - - - - - - - -
27/03:00pm 25.8 SE 14 16 1014.4 - - - - - - - - -
27/02:30pm 25.8 SE 13 15 1014.5 - - - - - - - - -
27/02:24pm 25.8 SE 13 - 1014.4 - - - - - - - - -
27/02:00pm 25.9 SE 13 15 1014.5 - - - - - - - - -
27/01:30pm 25.9 SE 14 17 1014.7 - - - - - - - - -
27/01:24pm 25.8 ESE 14 - 1014.7 - - - - - - - - -
27/01:00pm 25.9 ESE 13 15 1015.1 - - - - - - - - -
27/12:30pm 25.9 SE 15 17 1015.7 - - - - - - - - -
27/12:24pm 25.9 ESE 15 - 1015.6 - - - - - - - - -
27/12:00pm 25.8 ESE 15 18 1016.1 - - - - - - - - -
27/11:30am 25.9 ESE 17 20 1016.4 - - - - - - - - -
27/11:24am 25.9 ESE 16 - 1016.3 - - - - - - - - -
27/11:00am 25.8 ESE 16 19 1016.7 - - - - - - - - -
27/10:30am 25.9 ESE 17 20 1017.0 - - - - - - - - -
27/10:24am 25.9 ESE 17 - 1016.9 - - - - - - - - -
27/10:00am 25.9 ESE 17 20 1017.2 - - - - - - - - -
27/09:30am 25.9 ESE 17 19 1017.1 - - - - - - - - -
27/09:24am 25.9 ESE 17 - 1017.1 - - - - - - - - -
27/09:00am 25.8 ESE 16 19 1017.1 - - - - - - - - -
27/08:30am 26.1 ESE 16 20 1016.9 - - - - - - - - -
27/08:24am 26.0 ESE 16 - 1016.7 - - - - - - - - -
27/08:00am 25.9 ESE 17 21 1016.5 - - - - - - - - -
27/07:30am 25.6 ESE 17 19 1016.2 - - - - - - - - -
27/07:24am 25.5 ESE 17 - 1016.1 - - - - - - - - -
27/07:00am 25.5 ESE 17 19 1016.0 - - - - - - - - -
27/06:30am 25.5 ESE 18 21 1015.7 - - - - - - - - -
27/06:24am 25.5 ESE 18 - 1015.5 - - - - - - - - -
27/06:00am 25.4 ESE 16 19 1015.6 - - - - - - - - -
27/05:30am 25.3 ESE 17 21 1015.5 - - - - - - - - -
27/05:24am 25.3 ESE 16 - 1015.3 - - - - - - - - -
27/05:00am 25.2 ESE 17 19 1015.3 - - - - - - - - -
27/04:30am 25.3 ESE 17 19 1015.1 - - - - - - - - -
27/04:24am 25.3 ESE 16 - 1015.0 - - - - - - - - -
27/04:00am 25.1 ESE 17 20 1015.3 - - - - - - - - -
27/03:30am 25.3 ESE 15 18 1015.6 - - - - - - - - -
27/03:24am 25.4 SE 15 - 1015.4 - - - - - - - - -
27/03:00am 25.3 SE 16 20 1015.5 - - - - - - - - -
27/02:30am 25.5 ESE 17 19 1015.7 - - - - - - - - -
27/02:24am 25.4 ESE 17 - 1015.6 - - - - - - - - -
27/02:00am 25.5 ESE 16 20 1016.0 - - - - - - - - -
27/01:30am 25.4 ESE 16 19 1016.2 - - - - - - - - -
27/01:24am 25.5 ESE 17 - 1016.1 - - - - - - - - -
27/01:00am 25.7 ESE 17 20 1016.3 - - - - - - - - -
27/12:30am 25.6 ESE 19 22 1016.1 - - - - - - - - -
27/12:24am 25.5 ESE 18 - 1016.0 - - - - - - - - -
27/12:00am 25.6 ESE 19 22 1016.1 - - - - - - - - -
 
Date/Time
EST
Temp
°C
Wind Pressure Rain since
9am
mm
Weather Cloud Vis
km
Sea
Height
m
Swell
Dir  Spd
kts
Gust
kts
hPa Trend Height
m
Period
s
Dir
26/11:30pm 25.6 ESE 19 22 1016.2 - - - - - - - - -
26/11:24pm 25.7 ESE 19 - 1016.2 - - - - - - - - -
26/11:00pm 25.7 ESE 18 21 1016.4 - - - - - - - - -
26/10:30pm 25.7 ESE 18 21 1016.7 - - - - - - - - -
26/10:24pm 25.7 ESE 18 - 1016.6 - - - - - - - - -
26/10:00pm 25.7 SE 17 21 1016.8 - - - - - - - - -
26/09:30pm 25.7 ESE 18 21 1016.7 - - - - - - - - -
26/09:24pm 25.7 ESE 18 - 1016.6 - - - - - - - - -
26/09:00pm 25.6 SE 19 22 1016.7 - - - - - - - - -
26/08:30pm 25.7 ESE 18 21 1016.6 - - - - - - - - -
26/08:24pm 25.8 ESE 18 - 1016.5 - - - - - - - - -
26/08:00pm 25.7 SE 18 21 1016.4 - - - - - - - - -
26/07:30pm 25.8 SE 18 22 1015.9 - - - - - - - - -
26/07:24pm 25.9 ESE 18 - 1015.7 - - - - - - - - -
26/07:00pm 25.7 ESE 17 21 1015.4 - - - - - - - - -
26/06:30pm 25.7 SE 19 22 1015.0 - - - - - - - - -
26/06:24pm 25.7 ESE 19 - 1014.8 - - - - - - - - -
26/06:00pm 25.6 SE 19 22 1014.6 - - - - - - - - -
26/05:30pm 25.8 SE 19 22 1014.4 - - - - - - - - -
26/05:24pm 25.8 ESE 19 - 1014.3 - - - - - - - - -
26/05:00pm 25.9 SE 19 22 1014.2 - - - - - - - - -
26/04:30pm 25.9 SE 19 22 1014.0 - - - - - - - - -
26/04:24pm 25.9 SE 19 - 1014.0 - - - - - - - - -
26/04:00pm 25.9 SE 19 22 1014.0 - - - - - - - - -
26/03:30pm 25.9 ESE 19 22 1014.1 - - - - - - - - -
26/03:24pm 25.9 SE 19 - 1014.0 - - - - - - - - -
26/03:00pm 25.9 SE 19 21 1014.2 - - - - - - - - -
26/02:30pm 26.0 SE 18 21 1014.5 - - - - - - - - -
26/02:24pm 25.9 ESE 19 - 1014.3 - - - - - - - - -
26/02:00pm 26.0 SE 19 22 1014.5 - - - - - - - - -
26/01:30pm 26.1 ESE 18 21 1015.0 - - - - - - - - -
26/01:24pm 26.0 ESE 19 - 1015.0 - - - - - - - - -
26/01:00pm 26.1 ESE 19 22 1015.4 - - - - - - - - -
26/12:30pm 26.1 SE 20 22 1015.7 - - - - - - - - -
26/12:24pm 26.1 ESE 20 - 1015.7 - - - - - - - - -
26/12:00pm 26.1 ESE 20 23 1015.9 - - - - - - - - -
26/11:30am 26.1 ESE 21 24 1016.2 - - - - - - - - -
26/11:24am 25.9 ESE 21 - 1016.2 - - - - - - - - -
26/11:00am 26.1 ESE 21 24 1016.5 - - - - - - - - -
26/10:30am 25.9 ESE 20 24 1016.7 - - - - - - - - -
26/10:24am 26.0 ESE 21 - 1016.6 - - - - - - - - -
26/10:00am 25.9 ESE 21 26 1016.9 - - - - - - - - -
26/09:30am 25.7 ESE 21 25 1016.9 - - - - - - - - -
26/09:24am 25.8 ESE 21 - 1016.8 - - - - - - - - -
26/09:00am 26.0 ESE 21 25 1016.8 - - - - - - - - -
26/08:30am 25.8 SE 20 25 1016.7 - - - - - - - - -
26/08:24am 25.5 SE 21 - 1016.6 - - - - - - - - -
26/08:00am 25.7 ESE 22 25 1016.4 - - - - - - - - -
26/07:30am 25.8 ESE 21 25 1016.2 - - - - - - - - -
26/07:24am 25.7 ESE 22 - 1016.1 - - - - - - - - -
26/07:00am 25.5 ESE 22 27 1015.9 - - - - - - - - -
26/06:30am 25.5 SE 21 24 1015.5 - - - - - - - - -
26/06:24am 25.5 ESE 21 - 1015.3 - - - - - - - - -
26/06:00am 25.4 SE 22 26 1015.1 - - - - - - - - -
26/05:30am 25.4 ESE 21 25 1014.8 - - - - - - - - -
26/05:24am 25.5 ESE 22 - 1014.7 - - - - - - - - -
26/05:00am 25.4 SE 22 25 1014.6 - - - - - - - - -

Other Formats:

Comma delimited format used in spreadsheet applications
http://www.bom.gov.au/fwo/IDQ60701/IDQ60701.94290.axf

JavaScript Object Notation format (JSON) in row-major order
http://www.bom.gov.au/fwo/IDQ60701/IDQ60701.94290.json